createdAt,value
2022-08-20T00:01:49.591Z,6.07
2022-08-20T00:04:35.665Z,7.80
2022-08-20T00:07:21.923Z,5.77
2022-08-20T00:10:08.696Z,5.47
2022-08-20T00:12:55.508Z,6.50
2022-08-20T00:15:41.608Z,6.70
2022-08-20T00:18:27.969Z,5.90
2022-08-20T00:21:18.644Z,5.50
2022-08-20T00:24:06.325Z,6.97
2022-08-20T00:26:52.754Z,7.17
2022-08-20T00:29:38.938Z,8.53
2022-08-20T00:32:24.975Z,5.50
2022-08-20T00:35:13.101Z,7.20
2022-08-20T00:38:00.870Z,5.63
2022-08-20T00:40:53.996Z,8.10
2022-08-20T00:43:39.687Z,5.80
2022-08-20T00:46:30.917Z,8.53
2022-08-20T00:49:25.725Z,8.00
2022-08-20T00:52:18.365Z,7.90
2022-08-20T00:55:05.840Z,5.53
2022-08-20T00:58:01.707Z,6.13
2022-08-20T01:00:48.666Z,5.67
2022-08-20T01:03:34.904Z,5.67
2022-08-20T01:06:21.173Z,6.23
2022-08-20T01:09:07.569Z,6.30
2022-08-20T01:11:54.562Z,5.27
2022-08-20T01:14:50.064Z,5.70
2022-08-20T01:17:37.182Z,5.83
2022-08-20T01:20:28.439Z,6.17
2022-08-20T01:23:34.638Z,5.63
2022-08-20T01:26:25.709Z,6.20
2022-08-20T01:29:14.832Z,5.73
2022-08-20T01:32:02.257Z,5.77
2022-08-20T01:34:48.356Z,6.13
2022-08-20T01:37:34.148Z,6.27
2022-08-20T01:40:29.871Z,5.60
2022-08-20T01:43:17.254Z,6.57
2022-08-20T01:46:04.884Z,5.33
2022-08-20T01:48:51.266Z,5.80
2022-08-20T01:51:38.149Z,5.20
2022-08-20T01:54:25.026Z,5.40
2022-08-20T01:57:13.429Z,7.13
2022-08-20T02:00:00.320Z,6.07
2022-08-20T02:02:46.215Z,6.13
2022-08-20T02:05:34.264Z,6.00
2022-08-20T02:08:21.668Z,5.70
2022-08-20T02:11:08.588Z,6.53
2022-08-20T02:13:54.935Z,5.80
2022-08-20T02:16:42.777Z,5.57
2022-08-20T02:19:33.848Z,6.53
2022-08-20T02:22:27.018Z,6.80
2022-08-20T02:25:14.319Z,5.70
2022-08-20T02:28:01.960Z,5.50
2022-08-20T02:30:50.874Z,6.63
2022-08-20T02:33:37.114Z,6.60
2022-08-20T02:36:27.767Z,5.57
2022-08-20T02:39:14.023Z,5.57
2022-08-20T02:42:00.208Z,5.47
2022-08-20T02:44:46.609Z,5.40
2022-08-20T02:47:32.884Z,4.67
2022-08-20T02:50:21.140Z,5.40
2022-08-20T02:53:06.691Z,5.67
2022-08-20T02:55:53.318Z,6.80
2022-08-20T02:58:39.299Z,5.67
2022-08-20T03:01:24.820Z,5.73
2022-08-20T03:04:11.159Z,5.63
2022-08-20T03:06:57.105Z,5.80
2022-08-20T03:09:42.827Z,5.97
2022-08-20T03:12:29.450Z,5.97
2022-08-20T03:15:17.373Z,5.70
2022-08-20T03:18:04.114Z,6.20
2022-08-20T03:20:51.390Z,5.50
2022-08-20T03:23:40.472Z,5.50
2022-08-20T03:26:26.277Z,5.50
2022-08-20T03:29:12.612Z,5.20
2022-08-20T03:31:59.257Z,5.83
2022-08-20T03:34:44.996Z,6.10
2022-08-20T03:37:34.644Z,6.70
2022-08-20T03:40:22.243Z,6.87
2022-08-20T03:43:08.816Z,6.30
2022-08-20T03:45:54.476Z,5.80
2022-08-20T03:48:40.359Z,6.67
2022-08-20T03:51:26.276Z,6.10
2022-08-20T03:54:12.207Z,5.53
2022-08-20T03:56:58.000Z,7.27
2022-08-20T03:59:46.568Z,6.67
2022-08-20T04:02:40.853Z,5.60
2022-08-20T04:05:28.355Z,5.53
2022-08-20T04:08:15.911Z,6.17
2022-08-20T04:11:01.825Z,6.47
2022-08-20T04:13:47.709Z,5.63
2022-08-20T04:16:37.680Z,6.63
2022-08-20T04:19:23.947Z,6.57
2022-08-20T04:22:10.587Z,6.20
2022-08-20T04:24:56.389Z,7.60
2022-08-20T04:27:43.060Z,6.20
2022-08-20T04:30:29.364Z,6.67
2022-08-20T04:33:16.262Z,6.23
2022-08-20T04:36:05.967Z,6.53
2022-08-20T04:38:51.769Z,6.47
2022-08-20T04:41:37.712Z,6.97
2022-08-20T04:44:23.446Z,7.07
2022-08-20T04:47:09.260Z,7.20
2022-08-20T04:50:00.364Z,8.23
2022-08-20T04:52:48.658Z,8.03
2022-08-20T04:55:35.077Z,8.10
2022-08-20T04:58:27.326Z,9.33
2022-08-20T05:01:12.944Z,8.33
2022-08-20T05:03:58.977Z,8.13
2022-08-20T05:06:44.797Z,7.47
2022-08-20T05:09:32.711Z,8.83
2022-08-20T05:12:29.911Z,9.77
2022-08-20T05:15:16.316Z,8.70
2022-08-20T05:18:05.707Z,10.63
2022-08-20T05:20:51.510Z,10.07
2022-08-20T05:23:43.136Z,9.77
2022-08-20T05:26:29.233Z,10.63
2022-08-20T05:29:14.822Z,11.77
2022-08-20T05:32:02.716Z,9.90
2022-08-20T05:34:49.054Z,12.40
2022-08-20T05:37:38.582Z,11.70
2022-08-20T05:40:25.129Z,10.37
2022-08-20T05:43:11.050Z,8.57
2022-08-20T05:45:58.424Z,10.40
2022-08-20T05:48:44.245Z,10.00
2022-08-20T05:51:30.591Z,10.23
2022-08-20T05:54:16.754Z,11.93
2022-08-20T05:57:02.554Z,11.53
2022-08-20T05:59:49.447Z,13.13
2022-08-20T06:02:54.128Z,12.00
2022-08-20T06:05:40.272Z,10.43
2022-08-20T06:08:26.072Z,11.07
2022-08-20T06:11:11.986Z,11.63
2022-08-20T06:13:58.940Z,9.73
2022-08-20T06:16:57.253Z,11.37
2022-08-20T06:19:45.017Z,10.77
2022-08-20T06:22:32.588Z,10.67
2022-08-20T06:25:18.475Z,10.57
2022-08-20T06:28:04.786Z,10.97
2022-08-20T06:30:50.633Z,10.53
2022-08-20T06:33:36.338Z,11.10
2022-08-20T06:36:22.267Z,11.50
2022-08-20T06:39:09.378Z,12.00
2022-08-20T06:41:58.459Z,12.77
2022-08-20T06:44:48.345Z,11.93
2022-08-20T06:47:34.406Z,10.13
2022-08-20T06:50:24.800Z,11.90
2022-08-20T06:53:11.541Z,12.73
2022-08-20T06:55:59.209Z,12.50
2022-08-20T06:58:45.431Z,12.33
2022-08-20T07:01:32.276Z,14.40
2022-08-20T07:04:17.862Z,11.87
2022-08-20T07:07:04.365Z,11.10
2022-08-20T07:09:50.292Z,12.43
2022-08-20T07:12:36.308Z,12.90
2022-08-20T07:15:23.486Z,14.10
2022-08-20T07:18:09.277Z,10.27
2022-08-20T07:20:56.833Z,11.63
2022-08-20T07:23:42.503Z,11.50
2022-08-20T07:26:28.116Z,11.30
2022-08-20T07:29:13.999Z,11.50
2022-08-20T07:32:18.710Z,11.80
2022-08-20T07:35:11.533Z,12.53
2022-08-20T07:37:57.413Z,13.37
2022-08-20T07:40:43.425Z,12.40
2022-08-20T07:43:33.251Z,13.33
2022-08-20T07:46:21.311Z,11.67
2022-08-20T07:49:09.489Z,12.80
2022-08-20T07:51:55.070Z,11.67
2022-08-20T07:54:40.765Z,10.80
2022-08-20T07:57:26.652Z,15.30
2022-08-20T08:00:13.692Z,12.60
2022-08-20T08:03:03.004Z,13.47
2022-08-20T08:05:51.021Z,11.00
2022-08-20T08:08:37.540Z,11.37
2022-08-20T08:11:23.441Z,10.07
2022-08-20T08:14:10.479Z,11.07
2022-08-20T08:16:58.107Z,10.33
2022-08-20T08:19:45.385Z,11.17
2022-08-20T08:22:32.848Z,12.50
2022-08-20T08:25:18.708Z,9.43
2022-08-20T08:28:05.543Z,9.37
2022-08-20T08:30:51.376Z,9.13
2022-08-20T08:33:36.977Z,8.13
2022-08-20T08:36:27.673Z,8.53
2022-08-20T08:39:13.149Z,10.77
2022-08-20T08:42:00.543Z,6.67
2022-08-20T08:44:46.697Z,5.80
2022-08-20T08:47:37.679Z,5.30
2022-08-20T08:50:49.929Z,5.20
2022-08-20T08:53:33.311Z,6.07
2022-08-20T08:56:19.372Z,6.57
2022-08-20T08:59:07.653Z,6.17
2022-08-20T09:01:57.228Z,7.67
2022-08-20T09:04:44.647Z,11.50
2022-08-20T09:07:32.753Z,8.67
2022-08-20T09:10:22.818Z,8.50
2022-08-20T09:13:11.771Z,9.63
2022-08-20T09:15:57.560Z,9.17
2022-08-20T09:18:44.513Z,8.87
2022-08-20T09:21:30.633Z,8.00
2022-08-20T09:24:16.502Z,8.70
2022-08-20T09:27:04.278Z,8.27
2022-08-20T09:29:50.256Z,7.60
2022-08-20T09:32:36.418Z,7.57
2022-08-20T09:35:22.643Z,8.27
2022-08-20T09:38:08.468Z,8.70
2022-08-20T09:40:54.208Z,9.30
2022-08-20T09:43:39.935Z,7.47
2022-08-20T09:46:27.159Z,6.83
2022-08-20T09:49:14.190Z,6.23
2022-08-20T09:52:00.768Z,7.03
2022-08-20T09:54:46.834Z,7.23
2022-08-20T09:57:32.666Z,6.80
2022-08-20T10:00:19.013Z,5.83
2022-08-20T10:03:04.722Z,5.63
2022-08-20T10:05:50.392Z,4.83
2022-08-20T10:08:36.229Z,5.30
2022-08-20T10:11:21.686Z,5.40
2022-08-20T10:14:08.992Z,4.73
2022-08-20T10:17:01.531Z,4.03
2022-08-20T10:19:47.431Z,4.10
2022-08-20T10:22:33.215Z,4.43
2022-08-20T10:25:19.163Z,5.07
2022-08-20T10:28:05.663Z,4.17
2022-08-20T10:30:51.287Z,4.23
2022-08-20T10:33:37.259Z,4.73
2022-08-20T10:36:23.203Z,4.43
2022-08-20T10:39:10.449Z,5.07
2022-08-20T10:41:56.795Z,5.30
2022-08-20T10:44:43.747Z,4.17
2022-08-20T10:47:31.208Z,4.73
2022-08-20T10:50:19.871Z,4.80
2022-08-20T10:53:05.833Z,4.90
2022-08-20T10:55:53.270Z,5.57
2022-08-20T10:58:40.069Z,4.73
2022-08-20T11:01:32.612Z,4.13
2022-08-20T11:04:20.105Z,4.50
2022-08-20T11:08:08.471Z,4.07
2022-08-20T11:10:36.835Z,4.50
2022-08-20T11:13:22.848Z,4.07
2022-08-20T11:16:08.731Z,4.97
2022-08-20T11:18:56.787Z,4.10
2022-08-20T11:21:46.751Z,3.73
2022-08-20T11:24:33.941Z,4.67
2022-08-20T11:27:31.261Z,4.23
2022-08-20T11:30:19.562Z,4.13
2022-08-20T11:33:07.135Z,3.80
2022-08-20T11:35:52.885Z,3.43
2022-08-20T11:38:38.670Z,3.40
2022-08-20T11:41:24.684Z,2.97
2022-08-20T11:44:21.332Z,3.57
2022-08-20T11:47:08.595Z,3.40
2022-08-20T11:49:58.536Z,3.70
2022-08-20T11:52:44.846Z,3.23
2022-08-20T11:55:34.039Z,3.87
2022-08-20T11:58:22.001Z,2.63
2022-08-20T12:01:12.235Z,3.57
2022-08-20T12:04:00.405Z,3.10
2022-08-20T12:06:46.199Z,3.83
2022-08-20T12:09:35.039Z,3.70
2022-08-20T12:12:22.180Z,2.77
2022-08-20T12:15:09.964Z,2.97
2022-08-20T12:17:55.944Z,2.60
2022-08-20T12:20:41.563Z,2.93
2022-08-20T12:23:27.472Z,2.73
2022-08-20T12:26:16.557Z,3.00
2022-08-20T12:29:02.078Z,3.13
2022-08-20T12:31:48.133Z,3.90
2022-08-20T12:34:34.651Z,2.60
2022-08-20T12:37:22.338Z,4.80
2022-08-20T12:40:10.685Z,4.17
2022-08-20T12:42:56.433Z,2.93
2022-08-20T12:45:43.696Z,2.50
2022-08-20T12:48:29.682Z,3.77
2022-08-20T12:51:15.584Z,2.40
2022-08-20T12:54:04.093Z,1.90
2022-08-20T12:56:52.133Z,1.83
2022-08-20T12:59:37.643Z,1.80
2022-08-20T13:02:23.567Z,1.50
2022-08-20T13:05:10.009Z,2.40
2022-08-20T13:07:55.893Z,2.00
2022-08-20T13:10:45.402Z,1.57
2022-08-20T13:13:31.020Z,2.10
2022-08-20T13:16:16.801Z,2.77
2022-08-20T13:19:02.740Z,1.70
2022-08-20T13:21:54.887Z,1.70
2022-08-20T13:24:42.355Z,1.97
2022-08-20T13:27:29.971Z,3.23
2022-08-20T13:30:19.284Z,1.80
2022-08-20T13:33:06.151Z,2.97
2022-08-20T13:35:52.023Z,3.43
2022-08-20T13:38:37.904Z,2.20
2022-08-20T13:41:23.851Z,3.00
2022-08-20T13:44:10.745Z,2.93
2022-08-20T13:46:56.353Z,2.97
2022-08-20T13:49:42.321Z,2.20
2022-08-20T13:52:29.005Z,7.20
2022-08-20T13:55:20.680Z,6.10
2022-08-20T13:58:07.815Z,2.63
2022-08-20T14:00:53.630Z,2.50
2022-08-20T14:03:39.999Z,2.53
2022-08-20T14:06:28.922Z,3.00
2022-08-20T14:09:15.586Z,4.67
2022-08-20T14:12:01.427Z,3.10
2022-08-20T14:14:49.111Z,4.20
2022-08-20T14:17:36.818Z,4.03
2022-08-20T14:20:23.858Z,2.87
2022-08-20T14:23:10.355Z,3.00
2022-08-20T14:25:56.042Z,3.20
2022-08-20T14:28:42.120Z,4.00
2022-08-20T14:31:28.093Z,3.40
2022-08-20T14:34:14.088Z,3.23
2022-08-20T14:37:12.051Z,4.80
2022-08-20T14:40:01.794Z,3.30
2022-08-20T14:42:51.751Z,6.57
2022-08-20T14:45:37.745Z,3.70
2022-08-20T14:48:25.391Z,5.67
2022-08-20T14:51:11.288Z,3.10
2022-08-20T14:53:56.994Z,3.60
2022-08-20T14:56:43.056Z,3.50
2022-08-20T14:59:29.174Z,3.03
2022-08-20T15:02:18.356Z,2.97
2022-08-20T15:05:06.998Z,3.03
2022-08-20T15:07:54.091Z,4.83
2022-08-20T15:10:41.631Z,3.40
2022-08-20T15:13:27.792Z,3.30
2022-08-20T15:16:13.879Z,4.40
2022-08-20T15:19:00.009Z,3.37
2022-08-20T15:21:46.415Z,3.50
2022-08-20T15:24:32.253Z,3.60
2022-08-20T15:27:22.801Z,3.47
2022-08-20T15:30:10.846Z,7.00
2022-08-20T15:32:57.297Z,3.83
2022-08-20T15:35:43.986Z,4.83
2022-08-20T15:38:30.563Z,3.57
2022-08-20T15:41:16.391Z,3.87
2022-08-20T15:44:02.341Z,3.87
2022-08-20T15:46:48.000Z,4.67
2022-08-20T15:49:35.258Z,3.90
2022-08-20T15:52:27.222Z,3.93
2022-08-20T15:55:41.709Z,3.40
2022-08-20T15:58:37.748Z,3.90
2022-08-20T16:01:30.240Z,4.40
2022-08-20T16:04:23.246Z,3.30
2022-08-20T16:07:17.812Z,3.47
2022-08-20T16:10:10.905Z,4.37
2022-08-20T16:13:00.741Z,4.17
2022-08-20T16:15:49.613Z,4.43
2022-08-20T16:18:37.405Z,4.03
2022-08-20T16:21:31.849Z,3.90
2022-08-20T16:24:17.746Z,5.27
2022-08-20T16:27:14.748Z,4.17
2022-08-20T16:30:21.944Z,4.93
2022-08-20T16:33:21.205Z,4.20
2022-08-20T16:36:10.049Z,4.67
2022-08-20T16:38:59.233Z,5.00
2022-08-20T16:41:48.208Z,4.50
2022-08-20T16:44:35.785Z,4.40
2022-08-20T16:47:29.960Z,4.83
2022-08-20T16:50:34.540Z,5.40
2022-08-20T16:53:22.067Z,4.57
2022-08-20T16:56:07.943Z,4.40
2022-08-20T16:58:53.735Z,4.60
2022-08-20T17:01:39.909Z,4.50
2022-08-20T17:04:25.447Z,4.57
2022-08-20T17:07:12.030Z,4.87
2022-08-20T17:10:09.024Z,4.40
2022-08-20T17:12:59.392Z,4.83
2022-08-20T17:15:52.851Z,7.13
2022-08-20T17:18:40.647Z,5.03
2022-08-20T17:21:28.897Z,4.93
2022-08-20T17:24:23.329Z,4.20
2022-08-20T17:27:14.797Z,4.37
2022-08-20T17:30:06.643Z,4.50
2022-08-20T17:33:03.044Z,4.20
2022-08-20T17:35:53.097Z,5.37
2022-08-20T17:38:41.406Z,10.20
2022-08-20T17:41:32.171Z,4.53
2022-08-20T17:44:22.943Z,5.17
2022-08-20T17:47:13.127Z,4.13
2022-08-20T17:50:25.225Z,7.07
2022-08-20T17:53:14.506Z,4.80
2022-08-20T17:56:03.303Z,4.57
2022-08-20T17:58:54.290Z,5.20
2022-08-20T18:01:41.507Z,4.80
2022-08-20T18:04:28.006Z,6.67
2022-08-20T18:07:18.703Z,4.63
2022-08-20T18:10:09.575Z,4.87
2022-08-20T18:13:10.470Z,8.37
2022-08-20T18:15:58.587Z,5.67
2022-08-20T18:18:56.614Z,6.03
2022-08-20T18:22:02.512Z,6.27
2022-08-20T18:25:01.232Z,6.30
2022-08-20T18:27:52.283Z,5.63
2022-08-20T18:30:47.279Z,7.87
2022-08-20T18:33:34.744Z,7.10
2022-08-20T18:36:23.472Z,11.67
2022-08-20T18:39:11.569Z,8.90
2022-08-20T18:42:03.982Z,7.83
2022-08-20T18:44:51.848Z,5.53
2022-08-20T18:47:37.782Z,6.57
2022-08-20T18:50:26.528Z,6.10
2022-08-20T18:53:17.162Z,9.17
2022-08-20T18:56:07.973Z,7.03
2022-08-20T18:59:02.373Z,7.40
2022-08-20T19:01:49.460Z,7.70
2022-08-20T19:04:42.988Z,10.53
2022-08-20T19:07:48.136Z,11.57
2022-08-20T19:10:47.898Z,8.77
2022-08-20T19:13:39.888Z,7.63
2022-08-20T19:16:38.994Z,8.97
2022-08-20T19:19:28.473Z,8.80
2022-08-20T19:22:19.327Z,12.03
2022-08-20T19:25:05.115Z,10.83
2022-08-20T19:27:51.233Z,10.53
2022-08-20T19:30:41.493Z,8.80
2022-08-20T19:33:29.664Z,7.50
2022-08-20T19:36:17.775Z,8.83
2022-08-20T19:39:18.796Z,10.10
2022-08-20T19:42:04.727Z,10.17
2022-08-20T19:44:59.492Z,9.67
2022-08-20T19:48:11.511Z,11.70
2022-08-20T19:50:58.445Z,10.20
2022-08-20T19:53:48.187Z,9.47
2022-08-20T19:56:39.065Z,9.10
2022-08-20T19:59:24.605Z,8.93
2022-08-20T20:02:19.921Z,8.47
2022-08-20T20:05:09.276Z,8.83
2022-08-20T20:07:58.575Z,10.03
2022-08-20T20:10:50.282Z,9.40
2022-08-20T20:13:37.807Z,8.67
2022-08-20T20:16:25.926Z,8.67
2022-08-20T20:19:28.701Z,8.80
2022-08-20T20:22:28.344Z,9.10
2022-08-20T20:25:14.100Z,10.37
2022-08-20T20:28:07.697Z,8.40
2022-08-20T20:30:53.631Z,8.90
2022-08-20T20:33:44.503Z,8.10
2022-08-20T20:36:32.926Z,8.90
2022-08-20T20:39:27.596Z,9.00
2022-08-20T20:42:25.084Z,8.40
2022-08-20T20:45:19.050Z,9.20
2022-08-20T20:48:25.701Z,10.50
2022-08-20T20:51:32.140Z,10.17
2022-08-20T20:54:28.947Z,8.70
2022-08-20T20:57:34.273Z,9.13
2022-08-20T21:00:26.666Z,11.17
2022-08-20T21:03:12.900Z,9.87
2022-08-20T21:05:58.557Z,9.03
2022-08-20T21:08:44.539Z,9.80
2022-08-20T21:11:30.339Z,9.03
2022-08-20T21:14:16.577Z,11.90
2022-08-20T21:17:03.295Z,10.20
2022-08-20T21:19:50.039Z,7.93
2022-08-20T21:22:36.694Z,8.73
2022-08-20T21:25:22.542Z,8.60
2022-08-20T21:28:08.533Z,8.13
2022-08-20T21:30:58.479Z,7.27
2022-08-20T21:33:44.918Z,16.30
2022-08-20T21:36:30.414Z,8.80
2022-08-20T21:39:16.509Z,7.20
2022-08-20T21:42:03.274Z,9.20
2022-08-20T21:44:49.588Z,7.20
2022-08-20T21:47:35.810Z,8.37
2022-08-20T21:50:21.799Z,8.37
2022-08-20T21:53:11.370Z,7.73
2022-08-20T21:55:58.734Z,9.00
2022-08-20T21:58:45.759Z,9.13
2022-08-20T22:01:34.738Z,8.67
2022-08-20T22:04:20.841Z,8.40
2022-08-20T22:07:06.689Z,7.37
2022-08-20T22:09:52.681Z,6.60
2022-08-20T22:12:38.686Z,7.77
2022-08-20T22:15:24.712Z,7.93
2022-08-20T22:18:10.209Z,7.00
2022-08-20T22:20:56.566Z,10.10
2022-08-20T22:23:42.234Z,7.20
2022-08-20T22:26:28.634Z,6.10
2022-08-20T22:29:14.793Z,7.20
2022-08-20T22:32:01.102Z,7.93
2022-08-20T22:34:48.348Z,6.63
2022-08-20T22:37:34.473Z,7.50
2022-08-20T22:40:20.904Z,6.63
2022-08-20T22:43:06.965Z,6.63
2022-08-20T22:45:54.978Z,7.07
2022-08-20T22:48:41.825Z,8.90
2022-08-20T22:51:28.993Z,8.23
2022-08-20T22:54:20.122Z,7.57
2022-08-20T22:57:06.761Z,6.70
2022-08-20T22:59:54.613Z,7.53
2022-08-20T23:02:41.430Z,7.97
2022-08-20T23:05:29.121Z,7.90
2022-08-20T23:08:15.023Z,13.00
2022-08-20T23:11:00.972Z,10.90
2022-08-20T23:13:46.893Z,9.13
2022-08-20T23:16:33.212Z,12.83
2022-08-20T23:19:21.725Z,8.43
2022-08-20T23:22:07.934Z,11.20
2022-08-20T23:24:56.269Z,8.43
2022-08-20T23:27:48.860Z,9.03
2022-08-20T23:30:34.671Z,7.80
2022-08-20T23:33:22.397Z,8.43
2022-08-20T23:36:09.609Z,8.93
2022-08-20T23:38:55.464Z,7.80
2022-08-20T23:41:43.079Z,7.87
2022-08-20T23:44:34.066Z,10.13
2022-08-20T23:47:21.572Z,9.90
2022-08-20T23:50:08.559Z,7.77
2022-08-20T23:52:55.266Z,7.70
2022-08-20T23:55:41.554Z,8.20
2022-08-20T23:58:28.013Z,10.80
